sensor_id;sensor_type;location;lat;lon;timestamp;P1;durP1;ratioP1;P2;durP2;ratioP2
74375;SDS011;62812;55.188;61.302;2024-03-23T00:53:59;17.30;;;2.88;;
74375;SDS011;62812;55.188;61.302;2024-03-23T00:56:25;9.02;;;3.17;;
74375;SDS011;62812;55.188;61.302;2024-03-23T00:58:54;16.33;;;3.03;;
74375;SDS011;62812;55.188;61.302;2024-03-23T01:01:21;12.63;;;3.50;;
74375;SDS011;62812;55.188;61.302;2024-03-23T01:03:47;12.35;;;3.08;;
74375;SDS011;62812;55.188;61.302;2024-03-23T01:06:14;9.27;;;2.60;;
74375;SDS011;62812;55.188;61.302;2024-03-23T01:08:41;9.73;;;2.95;;
74375;SDS011;62812;55.188;61.302;2024-03-23T01:11:09;12.85;;;2.70;;
74375;SDS011;62812;55.188;61.302;2024-03-23T01:13:35;14.52;;;2.80;;
74375;SDS011;62812;55.188;61.302;2024-03-23T01:16:02;12.25;;;2.42;;
74375;SDS011;62812;55.188;61.302;2024-03-23T01:18:29;16.17;;;2.90;;
74375;SDS011;62812;55.188;61.302;2024-03-23T01:20:56;12.73;;;2.85;;
74375;SDS011;62812;55.188;61.302;2024-03-23T01:23:22;12.20;;;3.20;;
74375;SDS011;62812;55.188;61.302;2024-03-23T01:25:52;10.80;;;2.88;;
74375;SDS011;62812;55.188;61.302;2024-03-23T01:28:24;15.60;;;3.00;;
74375;SDS011;62812;55.188;61.302;2024-03-23T01:31:00;13.90;;;2.80;;
74375;SDS011;62812;55.188;61.302;2024-03-23T01:33:26;9.50;;;2.45;;
74375;SDS011;62812;55.188;61.302;2024-03-23T01:35:53;13.90;;;3.35;;
74375;SDS011;62812;55.188;61.302;2024-03-23T01:38:20;9.05;;;2.72;;
74375;SDS011;62812;55.188;61.302;2024-03-23T01:40:46;15.38;;;2.88;;
74375;SDS011;62812;55.188;61.302;2024-03-23T01:43:13;20.70;;;3.40;;
74375;SDS011;62812;55.188;61.302;2024-03-23T01:45:41;13.15;;;2.97;;
74375;SDS011;62812;55.188;61.302;2024-03-23T01:48:08;23.83;;;3.25;;
74375;SDS011;62812;55.188;61.302;2024-03-23T01:50:37;22.33;;;3.53;;
74375;SDS011;62812;55.188;61.302;2024-03-23T01:53:05;12.15;;;3.50;;
74375;SDS011;62812;55.188;61.302;2024-03-23T01:55:32;26.50;;;3.25;;
74375;SDS011;62812;55.188;61.302;2024-03-23T01:57:59;21.73;;;3.88;;
74375;SDS011;62812;55.188;61.302;2024-03-23T02:00:26;22.13;;;4.13;;
74375;SDS011;62812;55.188;61.302;2024-03-23T02:02:55;22.15;;;4.07;;
74375;SDS011;62812;55.188;61.302;2024-03-23T02:05:21;21.77;;;5.15;;
74375;SDS011;62812;55.188;61.302;2024-03-23T02:07:48;16.92;;;5.07;;
74375;SDS011;62812;55.188;61.302;2024-03-23T02:10:16;29.58;;;5.82;;
74375;SDS011;62812;55.188;61.302;2024-03-23T02:12:43;19.60;;;4.43;;
74375;SDS011;62812;55.188;61.302;2024-03-23T02:15:10;19.08;;;4.53;;
74375;SDS011;62812;55.188;61.302;2024-03-23T02:17:36;32.45;;;8.85;;
74375;SDS011;62812;55.188;61.302;2024-03-23T02:20:05;15.23;;;5.28;;
74375;SDS011;62812;55.188;61.302;2024-03-23T02:22:35;18.17;;;5.18;;
74375;SDS011;62812;55.188;61.302;2024-03-23T02:25:07;18.73;;;4.22;;
74375;SDS011;62812;55.188;61.302;2024-03-23T02:27:34;20.65;;;3.95;;
74375;SDS011;62812;55.188;61.302;2024-03-23T02:30:01;14.30;;;5.10;;
74375;SDS011;62812;55.188;61.302;2024-03-23T02:32:30;24.45;;;6.43;;
74375;SDS011;62812;55.188;61.302;2024-03-23T02:34:59;26.02;;;5.85;;
74375;SDS011;62812;55.188;61.302;2024-03-23T02:37:25;23.73;;;7.03;;
74375;SDS011;62812;55.188;61.302;2024-03-23T02:39:52;35.63;;;5.32;;
74375;SDS011;62812;55.188;61.302;2024-03-23T02:42:20;24.27;;;5.00;;
74375;SDS011;62812;55.188;61.302;2024-03-23T02:44:47;19.08;;;4.53;;
74375;SDS011;62812;55.188;61.302;2024-03-23T02:47:14;16.35;;;4.70;;
74375;SDS011;62812;55.188;61.302;2024-03-23T02:49:46;19.52;;;4.40;;
74375;SDS011;62812;55.188;61.302;2024-03-23T02:52:17;20.75;;;4.70;;
74375;SDS011;62812;55.188;61.302;2024-03-23T02:54:43;22.88;;;4.55;;
74375;SDS011;62812;55.188;61.302;2024-03-23T02:57:11;17.67;;;4.47;;
74375;SDS011;62812;55.188;61.302;2024-03-23T02:59:39;23.13;;;5.40;;
74375;SDS011;62812;55.188;61.302;2024-03-23T03:02:06;28.92;;;5.72;;
74375;SDS011;62812;55.188;61.302;2024-03-23T03:04:32;21.77;;;5.47;;
74375;SDS011;62812;55.188;61.302;2024-03-23T03:06:59;20.50;;;5.25;;
74375;SDS011;62812;55.188;61.302;2024-03-23T03:09:27;17.15;;;5.30;;
74375;SDS011;62812;55.188;61.302;2024-03-23T03:11:54;17.75;;;5.28;;
74375;SDS011;62812;55.188;61.302;2024-03-23T03:14:20;21.98;;;5.07;;
74375;SDS011;62812;55.188;61.302;2024-03-23T03:16:49;18.77;;;5.22;;
74375;SDS011;62812;55.188;61.302;2024-03-23T03:19:16;20.40;;;4.35;;
74375;SDS011;62812;55.188;61.302;2024-03-23T03:21:42;20.10;;;4.97;;
74375;SDS011;62812;55.188;61.302;2024-03-23T03:24:09;15.85;;;4.70;;
74375;SDS011;62812;55.188;61.302;2024-03-23T03:26:36;20.40;;;5.25;;
74375;SDS011;62812;55.188;61.302;2024-03-23T03:29:03;31.35;;;4.88;;
74375;SDS011;62812;55.188;61.302;2024-03-23T03:31:29;12.15;;;4.90;;
74375;SDS011;62812;55.188;61.302;2024-03-23T03:33:58;16.13;;;4.07;;
74375;SDS011;62812;55.188;61.302;2024-03-23T03:36:25;12.40;;;4.35;;
74375;SDS011;62812;55.188;61.302;2024-03-23T03:38:51;9.20;;;3.53;;
74375;SDS011;62812;55.188;61.302;2024-03-23T03:41:18;12.73;;;4.10;;
74375;SDS011;62812;55.188;61.302;2024-03-23T03:43:45;9.98;;;4.13;;
74375;SDS011;62812;55.188;61.302;2024-03-23T03:48:54;10.73;;;4.32;;
74375;SDS011;62812;55.188;61.302;2024-03-23T03:51:22;11.30;;;3.88;;
74375;SDS011;62812;55.188;61.302;2024-03-23T03:53:48;16.50;;;5.53;;
74375;SDS011;62812;55.188;61.302;2024-03-23T03:56:15;14.18;;;4.75;;
74375;SDS011;62812;55.188;61.302;2024-03-23T03:58:44;12.93;;;4.75;;
74375;SDS011;62812;55.188;61.302;2024-03-23T04:01:10;17.73;;;4.60;;
74375;SDS011;62812;55.188;61.302;2024-03-23T04:03:37;18.27;;;5.05;;
74375;SDS011;62812;55.188;61.302;2024-03-23T04:06:09;9.43;;;4.32;;
74375;SDS011;62812;55.188;61.302;2024-03-23T04:08:37;15.00;;;4.80;;
74375;SDS011;62812;55.188;61.302;2024-03-23T04:11:04;14.15;;;4.68;;
74375;SDS011;62812;55.188;61.302;2024-03-23T04:13:30;18.98;;;5.03;;
74375;SDS011;62812;55.188;61.302;2024-03-23T04:15:57;16.35;;;5.35;;
74375;SDS011;62812;55.188;61.302;2024-03-23T04:18:24;13.80;;;5.10;;
74375;SDS011;62812;55.188;61.302;2024-03-23T04:20:51;15.52;;;6.00;;
74375;SDS011;62812;55.188;61.302;2024-03-23T04:23:18;14.32;;;4.78;;
74375;SDS011;62812;55.188;61.302;2024-03-23T04:25:46;11.02;;;4.90;;
74375;SDS011;62812;55.188;61.302;2024-03-23T04:28:21;12.98;;;4.85;;
74375;SDS011;62812;55.188;61.302;2024-03-23T04:30:56;12.75;;;5.03;;
74375;SDS011;62812;55.188;61.302;2024-03-23T04:33:22;13.85;;;5.18;;
74375;SDS011;62812;55.188;61.302;2024-03-23T04:35:49;15.38;;;5.15;;
74375;SDS011;62812;55.188;61.302;2024-03-23T04:38:19;14.60;;;5.20;;
74375;SDS011;62812;55.188;61.302;2024-03-23T04:40:54;12.07;;;4.60;;
74375;SDS011;62812;55.188;61.302;2024-03-23T04:43:21;14.68;;;4.90;;
74375;SDS011;62812;55.188;61.302;2024-03-23T04:45:48;18.35;;;5.57;;
74375;SDS011;62812;55.188;61.302;2024-03-23T04:48:15;12.55;;;5.25;;
74375;SDS011;62812;55.188;61.302;2024-03-23T04:50:42;12.80;;;5.30;;
74375;SDS011;62812;55.188;61.302;2024-03-23T04:53:09;11.63;;;4.45;;
74375;SDS011;62812;55.188;61.302;2024-03-23T04:55:35;10.82;;;4.88;;
74375;SDS011;62812;55.188;61.302;2024-03-23T04:58:07;10.05;;;4.65;;
74375;SDS011;62812;55.188;61.302;2024-03-23T05:00:34;12.80;;;4.88;;
74375;SDS011;62812;55.188;61.302;2024-03-23T05:03:01;14.00;;;5.20;;
74375;SDS011;62812;55.188;61.302;2024-03-23T05:05:29;10.88;;;4.00;;
74375;SDS011;62812;55.188;61.302;2024-03-23T05:07:56;8.93;;;4.28;;
74375;SDS011;62812;55.188;61.302;2024-03-23T05:12:52;12.45;;;4.35;;
74375;SDS011;62812;55.188;61.302;2024-03-23T05:15:20;11.13;;;4.30;;
74375;SDS011;62812;55.188;61.302;2024-03-23T05:17:47;9.25;;;4.25;;
74375;SDS011;62812;55.188;61.302;2024-03-23T05:20:13;8.48;;;3.97;;
74375;SDS011;62812;55.188;61.302;2024-03-23T05:22:40;13.70;;;4.03;;
74375;SDS011;62812;55.188;61.302;2024-03-23T05:25:07;13.07;;;4.03;;
74375;SDS011;62812;55.188;61.302;2024-03-23T05:27:37;10.75;;;3.60;;
74375;SDS011;62812;55.188;61.302;2024-03-23T05:30:09;10.45;;;3.90;;
74375;SDS011;62812;55.188;61.302;2024-03-23T05:35:25;6.93;;;3.25;;
74375;SDS011;62812;55.188;61.302;2024-03-23T05:37:51;10.55;;;3.95;;
74375;SDS011;62812;55.188;61.302;2024-03-23T05:40:18;15.75;;;3.53;;
74375;SDS011;62812;55.188;61.302;2024-03-23T05:42:48;9.63;;;3.42;;
74375;SDS011;62812;55.188;61.302;2024-03-23T05:45:15;10.57;;;4.10;;
74375;SDS011;62812;55.188;61.302;2024-03-23T05:47:46;8.88;;;3.55;;
74375;SDS011;62812;55.188;61.302;2024-03-23T05:50:13;12.75;;;3.40;;
74375;SDS011;62812;55.188;61.302;2024-03-23T05:52:40;12.65;;;3.35;;
74375;SDS011;62812;55.188;61.302;2024-03-23T05:55:07;10.77;;;2.80;;
74375;SDS011;62812;55.188;61.302;2024-03-23T05:57:34;7.55;;;2.58;;
74375;SDS011;62812;55.188;61.302;2024-03-23T06:00:04;5.68;;;2.55;;
74375;SDS011;62812;55.188;61.302;2024-03-23T06:02:36;13.23;;;3.47;;
74375;SDS011;62812;55.188;61.302;2024-03-23T06:05:05;9.82;;;3.17;;
74375;SDS011;62812;55.188;61.302;2024-03-23T06:07:32;9.38;;;2.95;;
74375;SDS011;62812;55.188;61.302;2024-03-23T06:10:00;7.90;;;2.80;;
74375;SDS011;62812;55.188;61.302;2024-03-23T06:12:30;9.57;;;2.80;;
74375;SDS011;62812;55.188;61.302;2024-03-23T06:14:59;7.53;;;2.80;;
74375;SDS011;62812;55.188;61.302;2024-03-23T06:17:25;6.55;;;2.58;;
74375;SDS011;62812;55.188;61.302;2024-03-23T06:19:55;9.07;;;2.70;;
74375;SDS011;62812;55.188;61.302;2024-03-23T06:22:23;7.47;;;3.00;;
74375;SDS011;62812;55.188;61.302;2024-03-23T06:24:49;12.20;;;3.17;;
74375;SDS011;62812;55.188;61.302;2024-03-23T06:27:16;10.38;;;2.80;;
74375;SDS011;62812;55.188;61.302;2024-03-23T06:29:45;15.38;;;3.22;;
74375;SDS011;62812;55.188;61.302;2024-03-23T06:32:15;7.43;;;2.95;;
74375;SDS011;62812;55.188;61.302;2024-03-23T06:34:42;13.98;;;2.90;;
74375;SDS011;62812;55.188;61.302;2024-03-23T06:37:21;6.90;;;2.50;;
74375;SDS011;62812;55.188;61.302;2024-03-23T06:39:54;8.10;;;3.08;;
74375;SDS011;62812;55.188;61.302;2024-03-23T06:42:24;11.20;;;2.90;;
74375;SDS011;62812;55.188;61.302;2024-03-23T06:44:53;9.27;;;2.75;;
74375;SDS011;62812;55.188;61.302;2024-03-23T06:47:20;9.43;;;2.97;;
74375;SDS011;62812;55.188;61.302;2024-03-23T06:49:47;12.25;;;3.03;;
74375;SDS011;62812;55.188;61.302;2024-03-23T06:52:16;8.52;;;2.72;;
74375;SDS011;62812;55.188;61.302;2024-03-23T06:55:08;7.43;;;2.78;;
74375;SDS011;62812;55.188;61.302;2024-03-23T06:57:43;9.60;;;2.10;;
74375;SDS011;62812;55.188;61.302;2024-03-23T07:00:11;8.63;;;2.28;;
74375;SDS011;62812;55.188;61.302;2024-03-23T07:05:33;6.57;;;1.90;;
74375;SDS011;62812;55.188;61.302;2024-03-23T07:08:00;12.85;;;2.80;;
74375;SDS011;62812;55.188;61.302;2024-03-23T07:10:37;7.03;;;2.58;;
74375;SDS011;62812;55.188;61.302;2024-03-23T07:13:06;9.48;;;2.53;;
74375;SDS011;62812;55.188;61.302;2024-03-23T07:15:53;11.52;;;2.30;;
74375;SDS011;62812;55.188;61.302;2024-03-23T07:18:45;5.78;;;2.40;;
74375;SDS011;62812;55.188;61.302;2024-03-23T07:21:15;7.00;;;2.10;;
74375;SDS011;62812;55.188;61.302;2024-03-23T07:23:43;7.68;;;2.00;;
74375;SDS011;62812;55.188;61.302;2024-03-23T07:26:14;9.43;;;2.00;;
74375;SDS011;62812;55.188;61.302;2024-03-23T07:28:45;5.53;;;1.88;;
74375;SDS011;62812;55.188;61.302;2024-03-23T07:31:22;5.88;;;2.10;;
74375;SDS011;62812;55.188;61.302;2024-03-23T07:33:51;9.75;;;2.70;;
74375;SDS011;62812;55.188;61.302;2024-03-23T07:36:17;6.35;;;2.03;;
74375;SDS011;62812;55.188;61.302;2024-03-23T07:38:44;6.80;;;2.28;;
74375;SDS011;62812;55.188;61.302;2024-03-23T07:41:20;7.97;;;2.40;;
74375;SDS011;62812;55.188;61.302;2024-03-23T07:43:50;7.25;;;2.50;;
74375;SDS011;62812;55.188;61.302;2024-03-23T07:46:18;8.32;;;2.20;;
74375;SDS011;62812;55.188;61.302;2024-03-23T07:48:45;9.18;;;2.20;;
74375;SDS011;62812;55.188;61.302;2024-03-23T07:51:15;5.05;;;1.77;;
74375;SDS011;62812;55.188;61.302;2024-03-23T07:53:45;7.22;;;1.83;;
74375;SDS011;62812;55.188;61.302;2024-03-23T07:59:14;6.35;;;1.80;;
74375;SDS011;62812;55.188;61.302;2024-03-23T08:01:40;7.00;;;1.95;;
74375;SDS011;62812;55.188;61.302;2024-03-23T08:04:07;7.93;;;1.90;;
74375;SDS011;62812;55.188;61.302;2024-03-23T08:06:37;10.65;;;3.13;;
74375;SDS011;62812;55.188;61.302;2024-03-23T08:11:58;13.02;;;1.95;;
74375;SDS011;62812;55.188;61.302;2024-03-23T08:14:26;8.43;;;2.28;;
74375;SDS011;62812;55.188;61.302;2024-03-23T08:16:54;10.25;;;2.40;;
74375;SDS011;62812;55.188;61.302;2024-03-23T08:19:22;8.75;;;2.00;;
74375;SDS011;62812;55.188;61.302;2024-03-23T08:21:51;6.40;;;1.58;;
74375;SDS011;62812;55.188;61.302;2024-03-23T08:24:26;8.75;;;1.83;;
74375;SDS011;62812;55.188;61.302;2024-03-23T08:26:58;6.43;;;1.77;;
74375;SDS011;62812;55.188;61.302;2024-03-23T08:29:27;7.22;;;1.90;;
74375;SDS011;62812;55.188;61.302;2024-03-23T08:31:54;7.30;;;1.80;;
74375;SDS011;62812;55.188;61.302;2024-03-23T08:34:21;6.75;;;1.65;;
74375;SDS011;62812;55.188;61.302;2024-03-23T08:36:50;6.60;;;1.85;;
74375;SDS011;62812;55.188;61.302;2024-03-23T08:39:17;6.57;;;1.88;;
74375;SDS011;62812;55.188;61.302;2024-03-23T08:44:14;5.07;;;1.70;;
74375;SDS011;62812;55.188;61.302;2024-03-23T08:46:48;10.10;;;2.20;;
74375;SDS011;62812;55.188;61.302;2024-03-23T08:49:17;5.60;;;1.60;;
74375;SDS011;62812;55.188;61.302;2024-03-23T08:52:11;10.82;;;1.90;;
74375;SDS011;62812;55.188;61.302;2024-03-23T08:54:42;8.13;;;1.90;;
74375;SDS011;62812;55.188;61.302;2024-03-23T08:57:09;5.38;;;1.60;;
74375;SDS011;62812;55.188;61.302;2024-03-23T08:59:39;8.70;;;1.70;;
74375;SDS011;62812;55.188;61.302;2024-03-23T09:04:54;6.13;;;1.60;;
74375;SDS011;62812;55.188;61.302;2024-03-23T09:08:24;5.57;;;1.95;;
74375;SDS011;62812;55.188;61.302;2024-03-23T09:10:52;5.47;;;1.60;;
74375;SDS011;62812;55.188;61.302;2024-03-23T09:13:19;6.97;;;1.70;;
74375;SDS011;62812;55.188;61.302;2024-03-23T09:15:47;5.90;;;1.67;;
74375;SDS011;62812;55.188;61.302;2024-03-23T09:18:19;9.93;;;1.73;;
74375;SDS011;62812;55.188;61.302;2024-03-23T09:20:48;11.63;;;2.00;;
74375;SDS011;62812;55.188;61.302;2024-03-23T09:23:52;4.60;;;1.70;;
74375;SDS011;62812;55.188;61.302;2024-03-23T09:26:21;5.40;;;1.73;;
74375;SDS011;62812;55.188;61.302;2024-03-23T09:29:08;10.35;;;1.90;;
74375;SDS011;62812;55.188;61.302;2024-03-23T09:31:35;6.22;;;1.83;;
74375;SDS011;62812;55.188;61.302;2024-03-23T09:37:07;9.82;;;2.10;;
74375;SDS011;62812;55.188;61.302;2024-03-23T09:39:37;5.53;;;1.60;;
74375;SDS011;62812;55.188;61.302;2024-03-23T09:42:05;7.47;;;1.92;;
74375;SDS011;62812;55.188;61.302;2024-03-23T09:44:43;6.32;;;1.75;;
74375;SDS011;62812;55.188;61.302;2024-03-23T09:47:16;7.13;;;1.70;;
74375;SDS011;62812;55.188;61.302;2024-03-23T09:50:09;12.50;;;1.70;;
74375;SDS011;62812;55.188;61.302;2024-03-23T09:52:43;5.93;;;1.83;;
74375;SDS011;62812;55.188;61.302;2024-03-23T09:55:14;9.93;;;1.80;;
74375;SDS011;62812;55.188;61.302;2024-03-23T10:00:34;8.35;;;2.17;;
74375;SDS011;62812;55.188;61.302;2024-03-23T10:03:02;4.68;;;1.50;;
74375;SDS011;62812;55.188;61.302;2024-03-23T10:05:38;3.88;;;1.35;;
74375;SDS011;62812;55.188;61.302;2024-03-23T10:08:17;7.82;;;1.63;;
74375;SDS011;62812;55.188;61.302;2024-03-23T10:10:45;6.70;;;1.55;;
74375;SDS011;62812;55.188;61.302;2024-03-23T10:13:23;8.00;;;1.52;;
74375;SDS011;62812;55.188;61.302;2024-03-23T10:15:58;4.57;;;1.58;;
74375;SDS011;62812;55.188;61.302;2024-03-23T10:18:28;4.53;;;1.60;;
74375;SDS011;62812;55.188;61.302;2024-03-23T10:21:08;5.65;;;1.58;;
74375;SDS011;62812;55.188;61.302;2024-03-23T10:23:37;4.85;;;1.50;;
74375;SDS011;62812;55.188;61.302;2024-03-23T10:27:28;16.20;;;5.60;;
74375;SDS011;62812;55.188;61.302;2024-03-23T10:29:28;5.63;;;1.65;;
74375;SDS011;62812;55.188;61.302;2024-03-23T10:31:55;5.55;;;1.70;;
74375;SDS011;62812;55.188;61.302;2024-03-23T10:34:38;7.18;;;1.55;;
74375;SDS011;62812;55.188;61.302;2024-03-23T10:37:07;5.63;;;1.77;;
74375;SDS011;62812;55.188;61.302;2024-03-23T10:39:35;5.70;;;1.45;;
74375;SDS011;62812;55.188;61.302;2024-03-23T10:42:02;6.03;;;1.63;;
74375;SDS011;62812;55.188;61.302;2024-03-23T10:44:36;4.47;;;1.40;;
74375;SDS011;62812;55.188;61.302;2024-03-23T10:47:06;7.43;;;1.35;;
74375;SDS011;62812;55.188;61.302;2024-03-23T10:49:42;6.90;;;1.42;;
74375;SDS011;62812;55.188;61.302;2024-03-23T10:52:11;6.70;;;1.50;;
74375;SDS011;62812;55.188;61.302;2024-03-23T10:54:40;7.70;;;2.28;;
74375;SDS011;62812;55.188;61.302;2024-03-23T10:57:11;4.22;;;1.50;;
74375;SDS011;62812;55.188;61.302;2024-03-23T10:59:41;6.30;;;1.60;;
74375;SDS011;62812;55.188;61.302;2024-03-23T11:02:18;4.22;;;1.50;;
74375;SDS011;62812;55.188;61.302;2024-03-23T11:04:49;6.10;;;1.60;;
74375;SDS011;62812;55.188;61.302;2024-03-23T11:07:32;5.50;;;1.25;;
74375;SDS011;62812;55.188;61.302;2024-03-23T11:10:24;8.68;;;1.55;;
74375;SDS011;62812;55.188;61.302;2024-03-23T11:12:58;5.88;;;1.60;;
74375;SDS011;62812;55.188;61.302;2024-03-23T11:15:45;5.65;;;1.60;;
74375;SDS011;62812;55.188;61.302;2024-03-23T11:25:46;4.82;;;1.20;;
74375;SDS011;62812;55.188;61.302;2024-03-23T11:28:13;13.55;;;1.70;;
74375;SDS011;62812;55.188;61.302;2024-03-23T11:30:40;7.47;;;1.75;;
74375;SDS011;62812;55.188;61.302;2024-03-23T11:33:08;5.90;;;1.50;;
74375;SDS011;62812;55.188;61.302;2024-03-23T11:35:55;7.53;;;1.67;;
74375;SDS011;62812;55.188;61.302;2024-03-23T11:42:07;4.40;;;1.30;;
74375;SDS011;62812;55.188;61.302;2024-03-23T11:44:34;5.32;;;1.50;;
74375;SDS011;62812;55.188;61.302;2024-03-23T11:47:12;6.43;;;1.42;;
74375;SDS011;62812;55.188;61.302;2024-03-23T11:49:41;4.03;;;1.40;;
74375;SDS011;62812;55.188;61.302;2024-03-23T11:52:39;4.70;;;1.30;;
74375;SDS011;62812;55.188;61.302;2024-03-23T11:55:03;6.20;;;1.17;;
74375;SDS011;62812;55.188;61.302;2024-03-23T11:57:35;5.10;;;1.52;;
74375;SDS011;62812;55.188;61.302;2024-03-23T12:00:01;4.78;;;1.30;;
74375;SDS011;62812;55.188;61.302;2024-03-23T12:02:33;9.45;;;1.73;;
74375;SDS011;62812;55.188;61.302;2024-03-23T12:07:43;5.45;;;1.00;;
74375;SDS011;62812;55.188;61.302;2024-03-23T12:10:11;4.13;;;1.27;;
74375;SDS011;62812;55.188;61.302;2024-03-23T12:12:45;3.38;;;1.20;;
74375;SDS011;62812;55.188;61.302;2024-03-23T12:15:14;4.68;;;1.40;;
74375;SDS011;62812;55.188;61.302;2024-03-23T12:17:50;7.20;;;1.70;;
74375;SDS011;62812;55.188;61.302;2024-03-23T12:20:17;5.65;;;1.20;;
74375;SDS011;62812;55.188;61.302;2024-03-23T12:22:47;7.75;;;1.42;;
74375;SDS011;62812;55.188;61.302;2024-03-23T12:25:14;5.90;;;1.35;;
74375;SDS011;62812;55.188;61.302;2024-03-23T12:28:06;7.28;;;2.00;;
74375;SDS011;62812;55.188;61.302;2024-03-23T12:30:38;5.03;;;1.50;;
74375;SDS011;62812;55.188;61.302;2024-03-23T12:33:38;5.03;;;1.40;;
74375;SDS011;62812;55.188;61.302;2024-03-23T12:36:05;10.73;;;1.33;;
74375;SDS011;62812;55.188;61.302;2024-03-23T12:38:32;7.28;;;1.30;;
74375;SDS011;62812;55.188;61.302;2024-03-23T12:41:09;7.40;;;1.50;;
74375;SDS011;62812;55.188;61.302;2024-03-23T12:46:07;3.30;;;1.10;;
74375;SDS011;62812;55.188;61.302;2024-03-23T12:48:34;4.57;;;1.20;;
74375;SDS011;62812;55.188;61.302;2024-03-23T12:51:02;7.88;;;1.30;;
74375;SDS011;62812;55.188;61.302;2024-03-23T12:53:32;6.10;;;1.55;;
74375;SDS011;62812;55.188;61.302;2024-03-23T12:55:59;7.40;;;1.20;;
74375;SDS011;62812;55.188;61.302;2024-03-23T12:58:32;6.28;;;1.10;;
74375;SDS011;62812;55.188;61.302;2024-03-23T13:01:03;6.03;;;1.48;;
74375;SDS011;62812;55.188;61.302;2024-03-23T13:04:55;4.82;;;1.13;;
74375;SDS011;62812;55.188;61.302;2024-03-23T13:07:26;10.57;;;2.00;;
74375;SDS011;62812;55.188;61.302;2024-03-23T13:09:55;7.32;;;1.77;;
74375;SDS011;62812;55.188;61.302;2024-03-23T13:12:25;10.10;;;1.50;;
74375;SDS011;62812;55.188;61.302;2024-03-23T13:14:52;8.35;;;1.70;;
74375;SDS011;62812;55.188;61.302;2024-03-23T13:17:23;5.53;;;1.40;;
74375;SDS011;62812;55.188;61.302;2024-03-23T13:19:59;3.47;;;1.30;;
74375;SDS011;62812;55.188;61.302;2024-03-23T13:23:31;5.18;;;1.30;;
74375;SDS011;62812;55.188;61.302;2024-03-23T13:26:00;6.32;;;1.40;;
74375;SDS011;62812;55.188;61.302;2024-03-23T13:28:27;5.10;;;1.38;;
74375;SDS011;62812;55.188;61.302;2024-03-23T13:30:58;7.40;;;1.40;;
74375;SDS011;62812;55.188;61.302;2024-03-23T13:33:31;7.07;;;1.20;;
74375;SDS011;62812;55.188;61.302;2024-03-23T13:35:58;8.43;;;1.48;;
74375;SDS011;62812;55.188;61.302;2024-03-23T13:38:27;5.80;;;1.45;;
74375;SDS011;62812;55.188;61.302;2024-03-23T13:41:15;4.72;;;1.42;;
74375;SDS011;62812;55.188;61.302;2024-03-23T13:43:45;7.72;;;1.60;;
74375;SDS011;62812;55.188;61.302;2024-03-23T13:46:12;4.70;;;1.25;;
74375;SDS011;62812;55.188;61.302;2024-03-23T13:48:40;3.60;;;1.20;;
74375;SDS011;62812;55.188;61.302;2024-03-23T13:51:08;6.22;;;1.40;;
74375;SDS011;62812;55.188;61.302;2024-03-23T13:53:35;6.95;;;1.30;;
74375;SDS011;62812;55.188;61.302;2024-03-23T13:56:02;5.53;;;1.38;;
74375;SDS011;62812;55.188;61.302;2024-03-23T13:58:32;3.97;;;1.27;;
74375;SDS011;62812;55.188;61.302;2024-03-23T14:01:06;5.85;;;1.58;;
74375;SDS011;62812;55.188;61.302;2024-03-23T14:03:36;5.13;;;1.20;;
74375;SDS011;62812;55.188;61.302;2024-03-23T14:06:04;8.50;;;1.50;;
74375;SDS011;62812;55.188;61.302;2024-03-23T14:08:34;5.30;;;1.63;;
74375;SDS011;62812;55.188;61.302;2024-03-23T14:11:02;6.90;;;1.70;;
74375;SDS011;62812;55.188;61.302;2024-03-23T14:13:30;5.72;;;1.50;;
74375;SDS011;62812;55.188;61.302;2024-03-23T14:15:57;6.07;;;1.50;;
74375;SDS011;62812;55.188;61.302;2024-03-23T14:18:24;8.27;;;1.77;;
74375;SDS011;62812;55.188;61.302;2024-03-23T14:23:38;6.10;;;1.33;;
74375;SDS011;62812;55.188;61.302;2024-03-23T14:26:06;5.72;;;1.88;;
74375;SDS011;62812;55.188;61.302;2024-03-23T14:28:39;5.38;;;1.52;;
74375;SDS011;62812;55.188;61.302;2024-03-23T14:31:07;6.55;;;1.40;;
74375;SDS011;62812;55.188;61.302;2024-03-23T14:33:37;8.63;;;1.60;;
74375;SDS011;62812;55.188;61.302;2024-03-23T14:36:13;10.52;;;2.03;;
74375;SDS011;62812;55.188;61.302;2024-03-23T14:38:56;5.53;;;1.80;;
74375;SDS011;62812;55.188;61.302;2024-03-23T14:41:23;6.45;;;1.75;;
74375;SDS011;62812;55.188;61.302;2024-03-23T14:43:54;5.97;;;2.03;;
74375;SDS011;62812;55.188;61.302;2024-03-23T14:46:25;8.63;;;2.20;;
74375;SDS011;62812;55.188;61.302;2024-03-23T14:48:53;9.55;;;2.30;;
74375;SDS011;62812;55.188;61.302;2024-03-23T14:51:19;8.40;;;2.22;;
74375;SDS011;62812;55.188;61.302;2024-03-23T14:53:47;8.70;;;2.65;;
74375;SDS011;62812;55.188;61.302;2024-03-23T14:56:15;9.63;;;2.78;;
74375;SDS011;62812;55.188;61.302;2024-03-23T14:58:44;12.48;;;2.53;;
74375;SDS011;62812;55.188;61.302;2024-03-23T15:01:11;14.38;;;2.53;;
74375;SDS011;62812;55.188;61.302;2024-03-23T15:03:38;19.17;;;2.97;;
74375;SDS011;62812;55.188;61.302;2024-03-23T15:06:05;9.43;;;2.20;;
74375;SDS011;62812;55.188;61.302;2024-03-23T15:08:38;9.77;;;2.88;;
74375;SDS011;62812;55.188;61.302;2024-03-23T15:11:15;14.10;;;4.88;;
74375;SDS011;62812;55.188;61.302;2024-03-23T15:13:46;9.50;;;3.47;;
74375;SDS011;62812;55.188;61.302;2024-03-23T15:16:16;9.57;;;3.03;;
74375;SDS011;62812;55.188;61.302;2024-03-23T15:18:46;8.43;;;2.50;;
74375;SDS011;62812;55.188;61.302;2024-03-23T15:21:13;12.25;;;3.08;;
74375;SDS011;62812;55.188;61.302;2024-03-23T15:23:45;23.25;;;3.72;;
74375;SDS011;62812;55.188;61.302;2024-03-23T15:26:12;10.27;;;2.75;;
74375;SDS011;62812;55.188;61.302;2024-03-23T15:28:42;6.65;;;2.30;;
74375;SDS011;62812;55.188;61.302;2024-03-23T15:31:23;5.22;;;2.22;;
74375;SDS011;62812;55.188;61.302;2024-03-23T15:33:50;11.52;;;2.35;;
74375;SDS011;62812;55.188;61.302;2024-03-23T15:36:25;6.78;;;2.45;;
74375;SDS011;62812;55.188;61.302;2024-03-23T15:39:12;7.13;;;2.15;;
74375;SDS011;62812;55.188;61.302;2024-03-23T15:41:58;12.00;;;2.45;;
74375;SDS011;62812;55.188;61.302;2024-03-23T15:44:41;8.18;;;2.60;;
74375;SDS011;62812;55.188;61.302;2024-03-23T15:47:27;7.60;;;2.05;;
74375;SDS011;62812;55.188;61.302;2024-03-23T15:49:58;10.20;;;2.10;;
74375;SDS011;62812;55.188;61.302;2024-03-23T15:52:24;6.65;;;2.13;;
74375;SDS011;62812;55.188;61.302;2024-03-23T15:55:12;5.05;;;1.70;;
74375;SDS011;62812;55.188;61.302;2024-03-23T15:57:44;4.90;;;1.60;;
74375;SDS011;62812;55.188;61.302;2024-03-23T16:00:15;5.15;;;1.40;;
74375;SDS011;62812;55.188;61.302;2024-03-23T16:03:21;8.55;;;2.17;;
74375;SDS011;62812;55.188;61.302;2024-03-23T16:06:00;7.00;;;2.15;;
74375;SDS011;62812;55.188;61.302;2024-03-23T16:08:40;6.72;;;1.70;;
74375;SDS011;62812;55.188;61.302;2024-03-23T16:15:15;8.68;;;2.97;;
74375;SDS011;62812;55.188;61.302;2024-03-23T16:17:42;7.00;;;1.95;;
74375;SDS011;62812;55.188;61.302;2024-03-23T16:20:19;9.05;;;2.42;;
74375;SDS011;62812;55.188;61.302;2024-03-23T16:22:57;8.38;;;2.55;;
74375;SDS011;62812;55.188;61.302;2024-03-23T16:25:35;5.43;;;1.67;;
74375;SDS011;62812;55.188;61.302;2024-03-23T16:28:33;6.03;;;1.50;;
74375;SDS011;62812;55.188;61.302;2024-03-23T16:31:21;7.22;;;2.08;;
74375;SDS011;62812;55.188;61.302;2024-03-23T16:34:09;8.82;;;2.17;;
74375;SDS011;62812;55.188;61.302;2024-03-23T16:36:41;8.77;;;1.75;;